createdAt,value
2023-03-28T00:00:57.287Z,3.30
2023-03-28T00:03:24.398Z,3.20
2023-03-28T00:05:51.545Z,3.10
2023-03-28T00:08:18.989Z,3.00
2023-03-28T00:10:46.689Z,3.00
2023-03-28T00:13:15.109Z,2.90
2023-03-28T00:15:43.480Z,2.80
2023-03-28T00:18:10.520Z,2.70
2023-03-28T00:20:39.302Z,2.70
2023-03-28T00:23:06.410Z,2.70
2023-03-28T00:25:34.271Z,2.70
2023-03-28T00:28:01.623Z,2.70
2023-03-28T00:30:28.660Z,2.60
2023-03-28T00:32:57.054Z,2.70
2023-03-28T00:35:24.031Z,2.80
2023-03-28T00:37:53.122Z,2.60
2023-03-28T00:40:20.087Z,2.60
2023-03-28T00:42:47.129Z,2.50
2023-03-28T00:45:14.141Z,2.40
2023-03-28T00:47:44.463Z,2.50
2023-03-28T00:50:17.073Z,2.50
2023-03-28T00:52:48.161Z,2.40
2023-03-28T00:55:19.042Z,2.40
2023-03-28T00:57:47.798Z,2.50
2023-03-28T01:00:17.235Z,2.50
2023-03-28T01:02:45.716Z,2.30
2023-03-28T01:05:14.480Z,2.30
2023-03-28T01:07:46.652Z,2.20
2023-03-28T01:10:13.677Z,2.10
2023-03-28T01:12:42.074Z,2.00
2023-03-28T01:15:10.529Z,1.90
2023-03-28T01:17:37.580Z,1.90
2023-03-28T01:20:23.146Z,1.90
2023-03-28T01:23:18.648Z,1.90
2023-03-28T01:26:25.450Z,1.80
2023-03-28T01:29:16.972Z,1.90
2023-03-28T01:32:13.099Z,1.90
2023-03-28T01:35:00.271Z,1.80
2023-03-28T01:37:40.289Z,1.70
2023-03-28T01:40:32.843Z,1.60
2023-03-28T01:43:15.002Z,1.60
2023-03-28T01:45:51.041Z,1.60
2023-03-28T01:48:28.636Z,1.70
2023-03-28T01:51:01.365Z,1.70
2023-03-28T01:53:35.258Z,1.90
2023-03-28T01:56:07.599Z,1.90
2023-03-28T01:58:43.245Z,1.90
2023-03-28T02:01:13.708Z,1.80
2023-03-28T02:03:44.340Z,1.80
2023-03-28T02:06:12.276Z,1.90
2023-03-28T02:08:43.865Z,1.90
2023-03-28T02:11:11.106Z,1.90
2023-03-28T02:13:43.587Z,2.00
2023-03-28T02:16:12.245Z,2.10
2023-03-28T02:18:42.383Z,2.10
2023-03-28T02:21:16.968Z,2.00
2023-03-28T02:23:48.455Z,2.00
2023-03-28T02:26:15.466Z,1.90
2023-03-28T02:28:44.866Z,2.00
2023-03-28T02:31:12.142Z,2.10
2023-03-28T02:33:41.142Z,1.90
2023-03-28T02:36:30.034Z,1.90
2023-03-28T02:39:25.052Z,1.90
2023-03-28T02:42:18.103Z,1.90
2023-03-28T02:44:58.857Z,1.80
2023-03-28T02:47:33.948Z,1.80
2023-03-28T02:50:13.789Z,1.70
2023-03-28T02:52:46.680Z,1.60
2023-03-28T02:55:22.791Z,1.60
2023-03-28T02:57:53.491Z,1.50
2023-03-28T03:00:20.866Z,1.50
2023-03-28T03:02:49.676Z,1.40
2023-03-28T03:05:17.097Z,1.30
2023-03-28T03:07:43.987Z,1.40
2023-03-28T03:10:12.808Z,1.50
2023-03-28T03:12:41.594Z,1.50
2023-03-28T03:15:10.381Z,1.50
2023-03-28T03:17:37.683Z,1.60
2023-03-28T03:20:05.728Z,1.60
2023-03-28T03:22:33.125Z,1.50
2023-03-28T03:25:00.148Z,1.70
2023-03-28T03:27:27.254Z,1.90
2023-03-28T03:29:55.630Z,1.70
2023-03-28T03:32:22.638Z,1.60
2023-03-28T03:34:49.626Z,1.60
2023-03-28T03:37:16.663Z,1.50
2023-03-28T03:39:43.641Z,1.40
2023-03-28T03:42:12.825Z,1.40
2023-03-28T03:44:39.791Z,1.50
2023-03-28T03:47:08.122Z,1.50
2023-03-28T03:49:35.064Z,1.40
2023-03-28T03:52:01.987Z,1.30
2023-03-28T03:54:28.920Z,1.40
2023-03-28T03:56:55.930Z,1.50
2023-03-28T03:59:23.006Z,1.40
2023-03-28T04:01:49.966Z,1.40
2023-03-28T04:04:18.505Z,1.40
2023-03-28T04:06:45.648Z,1.30
2023-03-28T04:09:12.690Z,1.30
2023-03-28T04:11:39.670Z,1.30
2023-03-28T04:14:06.694Z,1.30
2023-03-28T04:16:40.906Z,1.30
2023-03-28T04:19:09.791Z,1.30
2023-03-28T04:21:39.056Z,1.20
2023-03-28T04:24:06.784Z,1.30
2023-03-28T04:26:33.806Z,1.20
2023-03-28T04:29:01.069Z,1.20
2023-03-28T04:31:28.164Z,1.20
2023-03-28T04:33:55.280Z,1.30
2023-03-28T04:36:22.367Z,1.40
2023-03-28T04:38:50.677Z,1.50
2023-03-28T04:41:17.711Z,1.50
2023-03-28T04:43:44.703Z,1.40
2023-03-28T04:46:11.908Z,1.40
2023-03-28T04:48:38.940Z,1.20
2023-03-28T04:51:06.733Z,1.20
2023-03-28T04:53:33.786Z,1.30
2023-03-28T04:56:02.366Z,1.10
2023-03-28T04:58:29.438Z,1.20
2023-03-28T05:00:56.420Z,1.20
2023-03-28T05:03:24.419Z,1.20
2023-03-28T05:05:52.708Z,1.20
2023-03-28T05:08:21.938Z,1.20
2023-03-28T05:10:49.569Z,1.20
2023-03-28T05:13:18.180Z,1.20
2023-03-28T05:15:47.478Z,1.20
2023-03-28T05:18:14.964Z,1.10
2023-03-28T05:20:42.300Z,1.10
2023-03-28T05:23:09.510Z,1.10
2023-03-28T05:25:36.764Z,1.20
2023-03-28T05:28:04.300Z,1.10
2023-03-28T05:30:32.725Z,1.10
2023-03-28T05:33:00.296Z,1.10
2023-03-28T05:35:27.300Z,1.20
2023-03-28T05:37:54.261Z,1.30
2023-03-28T05:40:21.424Z,1.40
2023-03-28T05:42:48.403Z,1.50
2023-03-28T05:45:16.168Z,1.40
2023-03-28T05:47:44.609Z,1.40
2023-03-28T05:50:11.727Z,1.40
2023-03-28T05:52:38.834Z,1.40
2023-03-28T05:55:06.869Z,1.40
2023-03-28T05:57:33.920Z,1.30
2023-03-28T06:00:01.038Z,1.20
2023-03-28T06:02:28.447Z,1.40
2023-03-28T06:04:57.093Z,1.60
2023-03-28T06:07:35.360Z,1.70
2023-03-28T06:10:10.575Z,1.80
2023-03-28T06:12:37.631Z,1.90
2023-03-28T06:15:05.702Z,1.90
2023-03-28T06:17:32.812Z,2.00
2023-03-28T06:20:01.229Z,2.10
2023-03-28T06:22:28.304Z,2.10
2023-03-28T06:25:01.898Z,2.10
2023-03-28T06:27:29.007Z,2.30
2023-03-28T06:30:02.892Z,2.40
2023-03-28T06:32:29.841Z,2.50
2023-03-28T06:34:56.773Z,2.50
2023-03-28T06:37:31.923Z,2.60
2023-03-28T06:39:58.915Z,2.70
2023-03-28T06:42:25.864Z,2.90
2023-03-28T06:44:58.873Z,3.00
2023-03-28T06:47:25.825Z,3.10
2023-03-28T06:49:52.769Z,3.10
2023-03-28T06:52:25.910Z,3.20
2023-03-28T06:54:54.276Z,3.30
2023-03-28T06:57:27.894Z,3.50
2023-03-28T06:59:54.955Z,3.70
2023-03-28T07:02:28.970Z,3.90
2023-03-28T07:04:55.975Z,4.10
2023-03-28T07:07:29.888Z,4.50
2023-03-28T07:09:58.161Z,5.00
2023-03-28T07:12:31.879Z,4.80
2023-03-28T07:14:58.917Z,5.00
2023-03-28T07:17:25.866Z,5.20
2023-03-28T07:19:58.940Z,5.20
2023-03-28T07:22:25.876Z,5.30
2023-03-28T07:24:52.877Z,5.30
2023-03-28T07:27:27.883Z,5.50
2023-03-28T07:29:54.637Z,5.60
2023-03-28T07:32:21.533Z,5.40
2023-03-28T07:34:54.931Z,5.40
2023-03-28T07:37:21.975Z,5.30
2023-03-28T07:39:55.877Z,5.30
2023-03-28T07:42:24.279Z,5.40
2023-03-28T07:44:57.904Z,5.50
2023-03-28T07:47:24.944Z,5.60
2023-03-28T07:49:51.858Z,5.70
2023-03-28T07:52:24.897Z,5.60
2023-03-28T07:54:51.852Z,5.60
2023-03-28T07:57:18.844Z,5.60
2023-03-28T07:59:53.902Z,5.60
2023-03-28T08:02:20.681Z,5.80
2023-03-28T08:04:47.613Z,5.90
2023-03-28T08:07:20.894Z,5.70
2023-03-28T08:09:48.161Z,5.80
2023-03-28T08:12:15.217Z,6.00
2023-03-28T08:14:48.917Z,6.00
2023-03-28T08:17:17.408Z,6.10
2023-03-28T08:19:50.933Z,6.40
2023-03-28T08:22:18.020Z,6.50
2023-03-28T08:24:51.908Z,6.70
2023-03-28T08:27:18.926Z,6.80
2023-03-28T08:29:45.884Z,6.80
2023-03-28T08:32:18.902Z,6.80
2023-03-28T08:34:47.169Z,6.60
2023-03-28T08:37:20.913Z,6.70
2023-03-28T08:39:48.069Z,6.80
2023-03-28T08:42:56.902Z,6.90
2023-03-28T08:45:50.186Z,7.00
2023-03-28T08:48:31.049Z,7.30
2023-03-28T08:51:02.979Z,7.80
2023-03-28T08:53:39.954Z,8.20
2023-03-28T08:56:08.953Z,8.40
2023-03-28T08:58:43.384Z,8.80
2023-03-28T09:01:10.607Z,8.80
2023-03-28T09:03:37.973Z,8.90
2023-03-28T09:06:19.331Z,8.70
2023-03-28T09:09:09.877Z,8.50
2023-03-28T09:11:48.849Z,8.70
2023-03-28T09:14:28.761Z,8.50
2023-03-28T09:17:07.128Z,8.80
2023-03-28T09:19:51.103Z,9.00
2023-03-28T09:22:33.253Z,9.20
2023-03-28T09:25:14.938Z,9.30
2023-03-28T09:27:53.205Z,9.00
2023-03-28T09:30:22.832Z,8.90
2023-03-28T09:32:52.036Z,8.90
2023-03-28T09:35:21.096Z,8.70
2023-03-28T09:37:51.843Z,9.00
2023-03-28T09:40:22.627Z,9.20
2023-03-28T09:42:57.861Z,9.30
2023-03-28T09:45:36.584Z,9.20
2023-03-28T09:48:04.657Z,9.30
2023-03-28T09:50:31.648Z,9.20
2023-03-28T09:52:59.962Z,9.10
2023-03-28T09:55:30.688Z,9.00
2023-03-28T09:58:06.631Z,9.30
2023-03-28T10:00:36.217Z,9.60
2023-03-28T10:03:03.560Z,9.90
2023-03-28T10:05:34.447Z,10.10
2023-03-28T10:08:11.922Z,10.00
2023-03-28T10:10:40.378Z,10.10
2023-03-28T10:13:10.346Z,10.10
2023-03-28T10:15:42.607Z,10.20
2023-03-28T10:18:17.210Z,9.90
2023-03-28T10:20:44.557Z,10.10
2023-03-28T10:23:14.016Z,9.80
2023-03-28T10:25:44.847Z,9.90
2023-03-28T10:28:16.244Z,9.60
2023-03-28T10:30:43.570Z,9.50
2023-03-28T10:33:24.946Z,9.50
2023-03-28T10:35:57.713Z,9.60
2023-03-28T10:38:30.898Z,9.90
2023-03-28T10:41:04.032Z,9.90
2023-03-28T10:43:34.114Z,10.10
2023-03-28T10:46:03.853Z,10.30
2023-03-28T10:48:33.204Z,10.30
2023-03-28T10:51:03.264Z,10.50
2023-03-28T10:53:44.232Z,10.90
2023-03-28T10:56:20.261Z,10.50
2023-03-28T10:58:53.792Z,10.60
2023-03-28T11:01:23.096Z,10.90
2023-03-28T11:04:05.427Z,11.10
2023-03-28T11:06:37.247Z,11.20
2023-03-28T11:09:17.436Z,10.90
2023-03-28T11:11:55.709Z,10.70
2023-03-28T11:14:40.911Z,11.00
2023-03-28T11:17:14.984Z,11.20
2023-03-28T11:20:05.850Z,11.50
2023-03-28T11:22:52.268Z,11.30
2023-03-28T11:25:35.753Z,11.50
2023-03-28T11:28:10.942Z,11.70
2023-03-28T11:30:39.942Z,11.60
2023-03-28T11:33:15.298Z,11.40
2023-03-28T11:35:47.754Z,11.60
2023-03-28T11:38:19.288Z,11.10
2023-03-28T11:40:52.740Z,10.80
2023-03-28T11:43:28.905Z,10.80
2023-03-28T11:46:02.985Z,11.00
2023-03-28T11:48:39.494Z,11.20
2023-03-28T11:51:11.175Z,11.20
2023-03-28T11:53:44.113Z,11.60
2023-03-28T11:56:25.975Z,11.80
2023-03-28T11:58:56.528Z,11.80
2023-03-28T12:01:26.870Z,11.90
2023-03-28T12:04:04.078Z,12.10
2023-03-28T12:06:36.948Z,12.10
2023-03-28T12:09:11.740Z,12.40
2023-03-28T12:11:43.793Z,12.70
2023-03-28T12:14:34.446Z,12.70
2023-03-28T12:17:10.640Z,12.90
2023-03-28T12:19:40.349Z,12.80
2023-03-28T12:22:14.007Z,12.80
2023-03-28T12:24:45.397Z,12.70
2023-03-28T12:27:22.992Z,12.50
2023-03-28T12:29:56.164Z,12.30
2023-03-28T12:32:33.875Z,11.80
2023-03-28T12:35:08.919Z,11.90
2023-03-28T12:37:40.339Z,11.90
2023-03-28T12:40:21.153Z,12.20
2023-03-28T12:42:51.972Z,12.50
2023-03-28T12:45:21.500Z,12.20
2023-03-28T12:47:52.269Z,11.90
2023-03-28T12:50:27.694Z,11.70
2023-03-28T12:52:56.568Z,11.80
2023-03-28T12:55:43.175Z,11.80
2023-03-28T12:58:23.892Z,12.10
2023-03-28T13:01:02.961Z,12.20
2023-03-28T13:03:37.232Z,11.50
2023-03-28T13:06:14.164Z,11.30
2023-03-28T13:08:58.675Z,11.50
2023-03-28T13:11:37.196Z,11.70
2023-03-28T13:14:21.693Z,11.80
2023-03-28T13:16:57.281Z,12.00
2023-03-28T13:19:38.124Z,11.70
2023-03-28T13:22:05.203Z,11.70
2023-03-28T13:24:34.751Z,11.60
2023-03-28T13:27:07.528Z,11.40
2023-03-28T13:29:50.709Z,11.50
2023-03-28T13:32:21.106Z,11.50
2023-03-28T13:34:49.291Z,11.60
2023-03-28T13:37:23.105Z,11.20
2023-03-28T13:39:52.014Z,11.30
2023-03-28T13:42:30.414Z,11.00
2023-03-28T13:45:02.738Z,11.00
2023-03-28T13:47:34.614Z,11.10
2023-03-28T13:50:08.325Z,11.30
2023-03-28T13:52:35.331Z,11.00
2023-03-28T13:55:04.667Z,11.00
2023-03-28T13:57:31.677Z,10.80
2023-03-28T14:00:01.484Z,11.00
2023-03-28T14:02:36.170Z,11.00
2023-03-28T14:05:22.980Z,11.20
2023-03-28T14:07:54.673Z,11.50
2023-03-28T14:10:27.719Z,11.30
2023-03-28T14:12:56.626Z,11.00
2023-03-28T14:15:30.542Z,10.70
2023-03-28T14:17:59.161Z,10.50
2023-03-28T14:20:27.769Z,10.60
2023-03-28T14:23:00.401Z,10.60
2023-03-28T14:25:29.525Z,10.70
2023-03-28T14:28:05.117Z,10.60
2023-03-28T14:30:39.288Z,10.60
2023-03-28T14:33:18.487Z,10.70
2023-03-28T14:35:56.314Z,11.00
2023-03-28T14:38:29.550Z,10.80
2023-03-28T14:41:06.148Z,10.80
2023-03-28T14:43:33.302Z,10.50
2023-03-28T14:46:05.578Z,10.50
2023-03-28T14:48:33.689Z,10.60
2023-03-28T14:51:00.831Z,10.50
2023-03-28T14:53:29.847Z,10.10
2023-03-28T14:56:02.152Z,10.30
2023-03-28T14:58:31.278Z,10.40
2023-03-28T15:01:01.604Z,10.30
2023-03-28T15:03:33.597Z,10.30
2023-03-28T15:06:01.695Z,10.50
2023-03-28T15:08:31.379Z,10.50
2023-03-28T15:11:01.225Z,10.30
2023-03-28T15:13:36.760Z,10.30
2023-03-28T15:16:06.771Z,10.30
2023-03-28T15:18:39.114Z,10.40
2023-03-28T15:21:08.434Z,10.40
2023-03-28T15:23:41.245Z,10.50
2023-03-28T15:26:15.580Z,10.50
2023-03-28T15:28:42.639Z,10.50
2023-03-28T15:31:11.981Z,10.60
2023-03-28T15:33:38.923Z,10.70
2023-03-28T15:36:07.379Z,10.80
2023-03-28T15:38:38.804Z,10.50
2023-03-28T15:41:11.059Z,10.40
2023-03-28T15:43:39.647Z,10.10
2023-03-28T15:46:13.019Z,10.30
2023-03-28T15:48:42.950Z,10.10
2023-03-28T15:51:14.728Z,10.20
2023-03-28T15:53:42.850Z,10.20
2023-03-28T15:56:16.270Z,10.20
2023-03-28T15:58:45.489Z,10.20
2023-03-28T16:01:23.034Z,10.10
2023-03-28T16:03:51.130Z,10.10
2023-03-28T16:06:31.802Z,10.00
2023-03-28T16:09:14.132Z,9.80
2023-03-28T16:11:41.163Z,9.40
2023-03-28T16:14:13.294Z,9.30
2023-03-28T16:16:41.719Z,9.50
2023-03-28T16:19:17.127Z,9.40
2023-03-28T16:21:44.076Z,9.40
2023-03-28T16:24:10.985Z,9.20
2023-03-28T16:26:37.937Z,9.00
2023-03-28T16:29:05.101Z,8.90
2023-03-28T16:31:32.104Z,8.50
2023-03-28T16:34:00.499Z,8.40
2023-03-28T16:36:27.499Z,8.40
2023-03-28T16:38:54.458Z,8.30
2023-03-28T16:41:21.636Z,8.40
2023-03-28T16:43:48.627Z,8.30
2023-03-28T16:46:15.855Z,8.40
2023-03-28T16:48:42.860Z,8.40
2023-03-28T16:51:11.216Z,8.30
2023-03-28T16:53:39.428Z,8.30
2023-03-28T16:56:08.188Z,8.30
2023-03-28T16:58:35.195Z,8.10
2023-03-28T17:01:04.612Z,8.00
2023-03-28T17:03:31.843Z,8.10
2023-03-28T17:06:02.375Z,8.00
2023-03-28T17:08:30.791Z,8.20
2023-03-28T17:11:01.702Z,8.00
2023-03-28T17:13:28.898Z,8.00
2023-03-28T17:15:56.061Z,7.80
2023-03-28T17:18:23.052Z,7.60
2023-03-28T17:20:58.861Z,7.50
2023-03-28T17:23:25.936Z,7.60
2023-03-28T17:25:54.985Z,7.40
2023-03-28T17:28:22.312Z,7.40
2023-03-28T17:30:49.443Z,7.40
2023-03-28T17:33:16.566Z,7.40
2023-03-28T17:35:43.773Z,7.20
2023-03-28T17:38:11.014Z,7.20
2023-03-28T17:40:38.285Z,7.10
2023-03-28T17:43:06.898Z,7.00
2023-03-28T17:45:33.986Z,7.10
2023-03-28T17:48:01.026Z,7.10
2023-03-28T17:50:28.018Z,7.00
2023-03-28T17:52:55.095Z,7.10
2023-03-28T17:55:22.015Z,7.10
2023-03-28T17:57:49.139Z,7.10
2023-03-28T18:00:18.655Z,7.10
2023-03-28T18:02:45.682Z,7.20
2023-03-28T18:05:13.995Z,7.10
2023-03-28T18:07:40.953Z,7.00
2023-03-28T18:10:08.693Z,6.90
2023-03-28T18:12:36.150Z,7.00
2023-03-28T18:15:03.517Z,7.10
2023-03-28T18:17:31.888Z,7.20
2023-03-28T18:19:58.958Z,7.30
2023-03-28T18:22:26.186Z,7.40
2023-03-28T18:24:53.362Z,7.40
2023-03-28T18:27:20.556Z,7.40
2023-03-28T18:29:47.551Z,7.50
2023-03-28T18:32:14.524Z,7.70
2023-03-28T18:34:43.234Z,7.90
2023-03-28T18:37:10.207Z,7.90
2023-03-28T18:39:37.483Z,8.20
2023-03-28T18:42:05.016Z,8.40
2023-03-28T18:44:31.996Z,8.40
2023-03-28T18:47:00.262Z,8.30
2023-03-28T18:49:27.371Z,8.30
2023-03-28T18:51:55.922Z,8.40
2023-03-28T18:54:22.876Z,8.40
2023-03-28T18:56:50.061Z,8.50
2023-03-28T18:59:17.048Z,8.60
2023-03-28T19:01:45.099Z,8.30
2023-03-28T19:04:12.373Z,8.20
2023-03-28T19:06:39.458Z,8.30
2023-03-28T19:09:07.953Z,8.40
2023-03-28T19:11:34.934Z,8.40
2023-03-28T19:14:01.994Z,8.50
2023-03-28T19:16:28.994Z,8.40
2023-03-28T19:18:56.227Z,8.40
2023-03-28T19:21:23.232Z,8.30
2023-03-28T19:23:50.308Z,8.30
2023-03-28T19:26:18.786Z,8.30
2023-03-28T19:28:46.100Z,8.20
2023-03-28T19:31:13.989Z,8.20
2023-03-28T19:33:41.444Z,8.20
2023-03-28T19:36:08.995Z,8.10
2023-03-28T19:38:37.525Z,7.90
2023-03-28T19:41:09.228Z,8.00
2023-03-28T19:43:38.796Z,8.20
2023-03-28T19:46:07.782Z,8.30
2023-03-28T19:48:35.319Z,8.50
2023-03-28T19:51:02.767Z,8.60
2023-03-28T19:53:29.963Z,8.50
2023-03-28T19:55:59.101Z,8.30
2023-03-28T19:58:27.577Z,8.10
2023-03-28T20:00:56.823Z,8.30
2023-03-28T20:03:24.039Z,8.20
2023-03-28T20:05:51.031Z,8.30
2023-03-28T20:08:18.011Z,8.40
2023-03-28T20:10:47.170Z,8.50
2023-03-28T20:13:15.287Z,8.40
2023-03-28T20:15:43.713Z,8.30
2023-03-28T20:18:14.212Z,8.20
2023-03-28T20:20:42.196Z,8.30
2023-03-28T20:23:09.808Z,8.50
2023-03-28T20:25:36.793Z,8.50
2023-03-28T20:28:04.082Z,8.40
2023-03-28T20:30:32.056Z,8.40
2023-03-28T20:32:59.320Z,8.30
2023-03-28T20:35:27.877Z,8.20
2023-03-28T20:37:54.875Z,8.20
2023-03-28T20:40:22.921Z,8.10
2023-03-28T20:42:49.957Z,8.20
2023-03-28T20:45:18.010Z,8.30
2023-03-28T20:47:45.016Z,8.20
2023-03-28T20:50:12.008Z,8.30
2023-03-28T20:52:40.458Z,8.30
2023-03-28T20:55:08.697Z,8.20
2023-03-28T20:57:35.714Z,8.50
2023-03-28T21:00:02.809Z,8.30
2023-03-28T21:02:31.649Z,8.40
2023-03-28T21:04:58.856Z,8.30
2023-03-28T21:07:25.901Z,8.20
2023-03-28T21:09:54.288Z,8.40
2023-03-28T21:12:21.289Z,8.40
2023-03-28T21:14:48.329Z,8.70
2023-03-28T21:17:15.340Z,8.60
2023-03-28T21:19:42.285Z,8.60
2023-03-28T21:22:09.309Z,8.70
2023-03-28T21:24:36.304Z,8.60
2023-03-28T21:27:04.641Z,8.50
2023-03-28T21:29:31.689Z,8.30
2023-03-28T21:31:58.717Z,8.30
2023-03-28T21:34:25.707Z,8.40
2023-03-28T21:36:52.748Z,8.60
2023-03-28T21:39:20.136Z,8.70
2023-03-28T21:41:47.067Z,8.70
2023-03-28T21:44:15.683Z,8.60
2023-03-28T21:46:42.601Z,8.60
2023-03-28T21:49:09.528Z,8.70
2023-03-28T21:51:36.709Z,8.60
2023-03-28T21:54:03.937Z,8.60
2023-03-28T21:56:30.868Z,8.70
2023-03-28T21:58:57.832Z,8.50
2023-03-28T22:01:26.411Z,8.40
2023-03-28T22:03:53.468Z,8.30
2023-03-28T22:06:20.456Z,8.30
2023-03-28T22:08:47.430Z,8.40
2023-03-28T22:11:16.468Z,8.40
2023-03-28T22:13:44.178Z,8.30
2023-03-28T22:16:11.879Z,8.30
2023-03-28T22:18:40.716Z,8.40
2023-03-28T22:21:09.924Z,8.60
2023-03-28T22:23:36.794Z,8.50
2023-03-28T22:26:03.827Z,8.50
2023-03-28T22:28:30.816Z,8.70
2023-03-28T22:30:57.818Z,8.60
2023-03-28T22:33:25.134Z,8.60
2023-03-28T22:35:53.924Z,8.50
2023-03-28T22:38:20.916Z,8.60
2023-03-28T22:40:47.977Z,8.80
2023-03-28T22:43:15.025Z,9.00
2023-03-28T22:45:42.044Z,8.80
2023-03-28T22:48:09.073Z,8.60
2023-03-28T22:50:36.094Z,8.70
2023-03-28T22:53:04.420Z,8.70
2023-03-28T22:55:31.393Z,8.90
2023-03-28T22:57:58.372Z,8.70
2023-03-28T23:00:25.366Z,8.80
2023-03-28T23:02:52.415Z,8.80
2023-03-28T23:05:20.070Z,9.00
2023-03-28T23:07:47.564Z,8.90
2023-03-28T23:10:17.747Z,9.00
2023-03-28T23:12:44.857Z,9.00
2023-03-28T23:15:12.329Z,9.10
2023-03-28T23:17:39.955Z,9.00
2023-03-28T23:20:08.645Z,9.00
2023-03-28T23:22:35.611Z,9.10
2023-03-28T23:25:02.588Z,9.20
2023-03-28T23:27:30.885Z,9.10
2023-03-28T23:29:58.054Z,9.00
2023-03-28T23:32:25.068Z,8.90
2023-03-28T23:34:52.050Z,9.00
2023-03-28T23:37:19.082Z,9.10
2023-03-28T23:39:46.141Z,9.10
2023-03-28T23:42:13.136Z,9.20
2023-03-28T23:44:41.499Z,9.20
2023-03-28T23:47:08.441Z,9.20
2023-03-28T23:49:35.385Z,9.10
2023-03-28T23:52:02.310Z,9.10
2023-03-28T23:54:29.248Z,9.00
2023-03-28T23:56:56.525Z,9.10
2023-03-28T23:59:23.645Z,9.20
